sensor_id;sensor_type;location;lat;lon;timestamp;pressure;altitude;pressure_sealevel;temperature;humidity
20930;BME280;21895;47.072;15.132;2023-02-20T00:00:47;97386.00;;;7.57;54.43
20930;BME280;21895;47.072;15.132;2023-02-20T00:03:15;97381.00;;;7.66;53.85
20930;BME280;21895;47.072;15.132;2023-02-20T00:05:42;97386.00;;;7.69;53.27
20930;BME280;21895;47.072;15.132;2023-02-20T00:08:09;97378.00;;;7.67;53.57
20930;BME280;21895;47.072;15.132;2023-02-20T00:10:35;97392.00;;;7.63;54.75
20930;BME280;21895;47.072;15.132;2023-02-20T00:13:02;97384.00;;;7.66;54.11
20930;BME280;21895;47.072;15.132;2023-02-20T00:15:28;97390.00;;;7.83;54.75
20930;BME280;21895;47.072;15.132;2023-02-20T00:17:55;97416.00;;;7.69;54.64
20930;BME280;21895;47.072;15.132;2023-02-20T00:20:24;97397.00;;;7.54;54.77
20930;BME280;21895;47.072;15.132;2023-02-20T00:22:51;97401.00;;;7.62;54.83
20930;BME280;21895;47.072;15.132;2023-02-20T00:25:20;97416.00;;;7.66;54.23
20930;BME280;21895;47.072;15.132;2023-02-20T00:27:47;97429.00;;;7.63;54.26
20930;BME280;21895;47.072;15.132;2023-02-20T00:30:23;97425.00;;;7.57;54.73
20930;BME280;21895;47.072;15.132;2023-02-20T00:32:53;97420.00;;;7.87;53.34
20930;BME280;21895;47.072;15.132;2023-02-20T00:35:20;97422.00;;;7.62;54.83
20930;BME280;21895;47.072;15.132;2023-02-20T00:37:48;97423.00;;;7.61;55.00
20930;BME280;21895;47.072;15.132;2023-02-20T00:40:17;97424.00;;;7.60;55.24
20930;BME280;21895;47.072;15.132;2023-02-20T00:42:44;97429.00;;;7.54;55.02
20930;BME280;21895;47.072;15.132;2023-02-20T00:45:13;97439.00;;;7.51;56.71
20930;BME280;21895;47.072;15.132;2023-02-20T00:47:41;97429.00;;;7.52;56.48
20930;BME280;21895;47.072;15.132;2023-02-20T00:50:08;97437.00;;;7.58;55.43
20930;BME280;21895;47.072;15.132;2023-02-20T00:52:35;97428.00;;;7.59;54.84
20930;BME280;21895;47.072;15.132;2023-02-20T00:55:02;97428.00;;;7.70;55.48
20930;BME280;21895;47.072;15.132;2023-02-20T00:57:29;97430.00;;;7.73;55.67
20930;BME280;21895;47.072;15.132;2023-02-20T00:59:55;97438.00;;;7.65;56.83
20930;BME280;21895;47.072;15.132;2023-02-20T01:02:22;97436.00;;;7.54;56.75
20930;BME280;21895;47.072;15.132;2023-02-20T01:04:49;97425.00;;;7.57;56.69
20930;BME280;21895;47.072;15.132;2023-02-20T01:07:16;97429.00;;;7.51;57.42
20930;BME280;21895;47.072;15.132;2023-02-20T01:09:42;97439.00;;;7.52;57.25
20930;BME280;21895;47.072;15.132;2023-02-20T01:12:09;97432.00;;;7.41;56.05
20930;BME280;21895;47.072;15.132;2023-02-20T01:14:36;97419.00;;;7.65;55.80
20930;BME280;21895;47.072;15.132;2023-02-20T01:17:03;97433.00;;;7.62;56.30
20930;BME280;21895;47.072;15.132;2023-02-20T01:19:29;97434.00;;;7.71;56.75
20930;BME280;21895;47.072;15.132;2023-02-20T01:21:56;97438.00;;;7.55;57.02
20930;BME280;21895;47.072;15.132;2023-02-20T01:24:22;97434.00;;;7.47;57.03
20930;BME280;21895;47.072;15.132;2023-02-20T01:26:49;97443.00;;;7.35;58.95
20930;BME280;21895;47.072;15.132;2023-02-20T01:29:17;97441.00;;;7.37;58.62
20930;BME280;21895;47.072;15.132;2023-02-20T01:31:49;97447.00;;;7.57;57.01
20930;BME280;21895;47.072;15.132;2023-02-20T01:34:17;97449.00;;;7.67;56.20
20930;BME280;21895;47.072;15.132;2023-02-20T01:36:50;97452.00;;;7.75;55.62
20930;BME280;21895;47.072;15.132;2023-02-20T01:39:19;97446.00;;;7.55;56.19
20930;BME280;21895;47.072;15.132;2023-02-20T01:41:48;97450.00;;;7.52;58.00
20930;BME280;21895;47.072;15.132;2023-02-20T01:44:28;97448.00;;;7.63;57.71
20930;BME280;21895;47.072;15.132;2023-02-20T01:46:59;97449.00;;;7.85;55.92
20930;BME280;21895;47.072;15.132;2023-02-20T01:50:12;97455.00;;;7.74;55.85
20930;BME280;21895;47.072;15.132;2023-02-20T01:52:42;97458.00;;;7.51;57.00
20930;BME280;21895;47.072;15.132;2023-02-20T01:56:10;97443.00;;;7.53;56.97
20930;BME280;21895;47.072;15.132;2023-02-20T01:58:45;97450.00;;;7.52;58.48
20930;BME280;21895;47.072;15.132;2023-02-20T02:01:15;97446.00;;;7.52;58.85
20930;BME280;21895;47.072;15.132;2023-02-20T02:03:46;97454.00;;;7.70;57.44
20930;BME280;21895;47.072;15.132;2023-02-20T02:06:14;97447.00;;;7.64;57.10
20930;BME280;21895;47.072;15.132;2023-02-20T02:08:44;97449.00;;;7.62;57.73
20930;BME280;21895;47.072;15.132;2023-02-20T02:11:18;97449.00;;;7.62;57.96
20930;BME280;21895;47.072;15.132;2023-02-20T02:13:45;97448.00;;;7.63;58.54
20930;BME280;21895;47.072;15.132;2023-02-20T02:22:28;97449.00;;;7.28;59.58
20930;BME280;21895;47.072;15.132;2023-02-20T02:25:32;97460.00;;;7.18;60.25
20930;BME280;21895;47.072;15.132;2023-02-20T02:28:52;97456.00;;;7.28;59.44
20930;BME280;21895;47.072;15.132;2023-02-20T02:41:51;97438.00;;;7.22;59.90
20930;BME280;21895;47.072;15.132;2023-02-20T02:48:48;97440.00;;;7.36;58.04
20930;BME280;21895;47.072;15.132;2023-02-20T02:51:33;97456.00;;;7.26;58.67
20930;BME280;21895;47.072;15.132;2023-02-20T02:54:18;97452.00;;;7.25;58.64
20930;BME280;21895;47.072;15.132;2023-02-20T02:56:47;97459.00;;;7.28;59.02
20930;BME280;21895;47.072;15.132;2023-02-20T02:59:23;97462.00;;;7.30;59.45
20930;BME280;21895;47.072;15.132;2023-02-20T03:02:02;97467.00;;;7.25;59.22
20930;BME280;21895;47.072;15.132;2023-02-20T03:04:33;97462.00;;;7.25;58.80
20930;BME280;21895;47.072;15.132;2023-02-20T03:07:12;97464.00;;;7.20;58.91
20930;BME280;21895;47.072;15.132;2023-02-20T03:09:59;97477.00;;;7.26;58.85
20930;BME280;21895;47.072;15.132;2023-02-20T03:12:28;97470.00;;;7.31;59.20
20930;BME280;21895;47.072;15.132;2023-02-20T03:15:56;97474.00;;;7.21;59.52
20930;BME280;21895;47.072;15.132;2023-02-20T03:18:35;97470.00;;;7.04;60.33
20930;BME280;21895;47.072;15.132;2023-02-20T03:21:18;97468.00;;;7.04;60.60
20930;BME280;21895;47.072;15.132;2023-02-20T03:23:56;97470.00;;;7.12;61.01
20930;BME280;21895;47.072;15.132;2023-02-20T03:26:32;97472.00;;;7.04;60.75
20930;BME280;21895;47.072;15.132;2023-02-20T03:29:13;97484.00;;;6.95;60.58
20930;BME280;21895;47.072;15.132;2023-02-20T03:31:50;97478.00;;;6.93;61.42
20930;BME280;21895;47.072;15.132;2023-02-20T03:34:38;97479.00;;;6.98;60.64
20930;BME280;21895;47.072;15.132;2023-02-20T03:37:27;97483.00;;;6.99;60.79
20930;BME280;21895;47.072;15.132;2023-02-20T03:40:17;97486.00;;;7.06;60.88
20930;BME280;21895;47.072;15.132;2023-02-20T03:43:11;97505.00;;;7.04;60.73
20930;BME280;21895;47.072;15.132;2023-02-20T03:45:58;97501.00;;;6.92;62.14
20930;BME280;21895;47.072;15.132;2023-02-20T03:51:54;97510.00;;;6.79;61.57
20930;BME280;21895;47.072;15.132;2023-02-20T03:54:21;97499.00;;;6.86;60.96
20930;BME280;21895;47.072;15.132;2023-02-20T03:56:53;97511.00;;;6.88;61.41
20930;BME280;21895;47.072;15.132;2023-02-20T03:59:35;97510.00;;;6.86;61.05
20930;BME280;21895;47.072;15.132;2023-02-20T04:02:10;97505.00;;;6.98;61.51
20930;BME280;21895;47.072;15.132;2023-02-20T04:04:45;97514.00;;;7.08;61.11
20930;BME280;21895;47.072;15.132;2023-02-20T04:07:34;97516.00;;;7.50;59.04
20930;BME280;21895;47.072;15.132;2023-02-20T04:10:06;97517.00;;;7.39;58.87
20930;BME280;21895;47.072;15.132;2023-02-20T04:12:39;97518.00;;;7.28;59.47
20930;BME280;21895;47.072;15.132;2023-02-20T04:15:10;97521.00;;;7.34;59.38
20930;BME280;21895;47.072;15.132;2023-02-20T04:17:46;97523.00;;;7.40;59.23
20930;BME280;21895;47.072;15.132;2023-02-20T04:20:15;97527.00;;;7.18;60.22
20930;BME280;21895;47.072;15.132;2023-02-20T04:22:47;97529.00;;;7.11;60.84
20930;BME280;21895;47.072;15.132;2023-02-20T04:25:58;97537.00;;;7.14;60.74
20930;BME280;21895;47.072;15.132;2023-02-20T04:28:27;97539.00;;;7.22;60.35
20930;BME280;21895;47.072;15.132;2023-02-20T04:30:53;97538.00;;;7.17;60.67
20930;BME280;21895;47.072;15.132;2023-02-20T04:33:20;97541.00;;;7.12;60.76
20930;BME280;21895;47.072;15.132;2023-02-20T04:35:47;97543.00;;;7.23;60.80
20930;BME280;21895;47.072;15.132;2023-02-20T04:38:14;97551.00;;;7.13;61.39
20930;BME280;21895;47.072;15.132;2023-02-20T04:40:40;97548.00;;;7.10;61.33
20930;BME280;21895;47.072;15.132;2023-02-20T04:43:07;97546.00;;;7.07;61.92
20930;BME280;21895;47.072;15.132;2023-02-20T04:45:34;97541.00;;;7.04;62.45
20930;BME280;21895;47.072;15.132;2023-02-20T04:48:00;97546.00;;;7.03;62.41
20930;BME280;21895;47.072;15.132;2023-02-20T04:50:32;97533.00;;;6.95;62.37
20930;BME280;21895;47.072;15.132;2023-02-20T04:53:00;97544.00;;;6.91;62.75
20930;BME280;21895;47.072;15.132;2023-02-20T04:55:27;97541.00;;;6.97;62.84
20930;BME280;21895;47.072;15.132;2023-02-20T04:57:54;97546.00;;;6.92;62.90
20930;BME280;21895;47.072;15.132;2023-02-20T05:00:25;97536.00;;;6.81;62.92
20930;BME280;21895;47.072;15.132;2023-02-20T05:02:52;97541.00;;;6.67;63.44
20930;BME280;21895;47.072;15.132;2023-02-20T05:05:28;97557.00;;;6.54;63.73
20930;BME280;21895;47.072;15.132;2023-02-20T05:08:01;97556.00;;;6.45;63.83
20930;BME280;21895;47.072;15.132;2023-02-20T05:10:30;97557.00;;;6.39;64.44
20930;BME280;21895;47.072;15.132;2023-02-20T05:12:58;97557.00;;;6.33;64.64
20930;BME280;21895;47.072;15.132;2023-02-20T05:15:27;97557.00;;;6.30;65.20
20930;BME280;21895;47.072;15.132;2023-02-20T05:17:53;97545.00;;;6.29;65.18
20930;BME280;21895;47.072;15.132;2023-02-20T05:20:20;97555.00;;;6.32;64.78
20930;BME280;21895;47.072;15.132;2023-02-20T05:24:45;97552.00;;;6.21;64.61
20930;BME280;21895;47.072;15.132;2023-02-20T05:27:14;97544.00;;;5.99;65.49
20930;BME280;21895;47.072;15.132;2023-02-20T05:29:50;97540.00;;;5.98;65.07
20930;BME280;21895;47.072;15.132;2023-02-20T05:32:19;97541.00;;;5.90;65.71
20930;BME280;21895;47.072;15.132;2023-02-20T05:34:46;97553.00;;;5.73;65.66
20930;BME280;21895;47.072;15.132;2023-02-20T05:37:15;97547.00;;;5.76;65.57
20930;BME280;21895;47.072;15.132;2023-02-20T05:39:42;97539.00;;;5.89;65.93
20930;BME280;21895;47.072;15.132;2023-02-20T05:42:10;97547.00;;;5.81;65.38
20930;BME280;21895;47.072;15.132;2023-02-20T05:44:37;97551.00;;;5.55;65.77
20930;BME280;21895;47.072;15.132;2023-02-20T05:47:04;97546.00;;;5.41;66.05
20930;BME280;21895;47.072;15.132;2023-02-20T05:49:34;97537.00;;;5.32;66.09
20930;BME280;21895;47.072;15.132;2023-02-20T05:52:02;97545.00;;;5.09;66.88
20930;BME280;21895;47.072;15.132;2023-02-20T05:54:28;97538.00;;;5.10;67.17
20930;BME280;21895;47.072;15.132;2023-02-20T05:56:55;97551.00;;;5.01;67.52
20930;BME280;21895;47.072;15.132;2023-02-20T05:59:22;97555.00;;;5.07;67.39
20930;BME280;21895;47.072;15.132;2023-02-20T06:01:55;97566.00;;;5.00;67.41
20930;BME280;21895;47.072;15.132;2023-02-20T06:04:22;97568.00;;;5.09;66.89
20930;BME280;21895;47.072;15.132;2023-02-20T06:06:48;97567.00;;;4.92;66.95
20930;BME280;21895;47.072;15.132;2023-02-20T06:09:15;97560.00;;;4.89;67.05
20930;BME280;21895;47.072;15.132;2023-02-20T06:11:48;97564.00;;;4.98;66.90
20930;BME280;21895;47.072;15.132;2023-02-20T06:14:16;97564.00;;;4.86;68.07
20930;BME280;21895;47.072;15.132;2023-02-20T06:16:44;97564.00;;;4.85;67.77
20930;BME280;21895;47.072;15.132;2023-02-20T06:19:17;97580.00;;;4.82;67.72
20930;BME280;21895;47.072;15.132;2023-02-20T06:21:45;97574.00;;;4.76;68.26
20930;BME280;21895;47.072;15.132;2023-02-20T06:24:12;97574.00;;;4.86;68.84
20930;BME280;21895;47.072;15.132;2023-02-20T06:26:40;97583.00;;;5.10;68.77
20930;BME280;21895;47.072;15.132;2023-02-20T06:29:07;97572.00;;;5.14;68.25
20930;BME280;21895;47.072;15.132;2023-02-20T06:31:33;97566.00;;;5.43;66.68
20930;BME280;21895;47.072;15.132;2023-02-20T06:34:00;97580.00;;;5.24;67.23
20930;BME280;21895;47.072;15.132;2023-02-20T06:36:34;97573.00;;;5.16;67.19
20930;BME280;21895;47.072;15.132;2023-02-20T06:39:04;97579.00;;;5.19;67.28
20930;BME280;21895;47.072;15.132;2023-02-20T06:41:31;97572.00;;;5.32;67.34
20930;BME280;21895;47.072;15.132;2023-02-20T06:43:58;97590.00;;;5.27;67.65
20930;BME280;21895;47.072;15.132;2023-02-20T06:46:24;97594.00;;;5.39;67.44
20930;BME280;21895;47.072;15.132;2023-02-20T06:48:55;97602.00;;;5.42;67.38
20930;BME280;21895;47.072;15.132;2023-02-20T06:51:28;97588.00;;;5.50;67.10
20930;BME280;21895;47.072;15.132;2023-02-20T06:53:55;97612.00;;;5.46;67.52
20930;BME280;21895;47.072;15.132;2023-02-20T06:56:26;97603.00;;;5.45;67.58
20930;BME280;21895;47.072;15.132;2023-02-20T06:58:54;97610.00;;;5.49;67.63
20930;BME280;21895;47.072;15.132;2023-02-20T07:01:24;97616.00;;;5.58;67.97
20930;BME280;21895;47.072;15.132;2023-02-20T07:03:52;97606.00;;;5.66;67.48
20930;BME280;21895;47.072;15.132;2023-02-20T07:06:22;97604.00;;;5.85;67.11
20930;BME280;21895;47.072;15.132;2023-02-20T07:08:49;97607.00;;;5.93;67.36
20930;BME280;21895;47.072;15.132;2023-02-20T07:11:18;97597.00;;;5.87;67.59
20930;BME280;21895;47.072;15.132;2023-02-20T07:13:49;97596.00;;;5.96;67.37
20930;BME280;21895;47.072;15.132;2023-02-20T07:16:16;97603.00;;;6.05;67.62
20930;BME280;21895;47.072;15.132;2023-02-20T07:18:44;97590.00;;;6.29;67.14
20930;BME280;21895;47.072;15.132;2023-02-20T07:21:11;97591.00;;;6.54;66.21
20930;BME280;21895;47.072;15.132;2023-02-20T07:23:37;97598.00;;;6.67;66.01
20930;BME280;21895;47.072;15.132;2023-02-20T07:26:04;97586.00;;;6.92;65.64
20930;BME280;21895;47.072;15.132;2023-02-20T07:28:33;97587.00;;;6.99;64.94
20930;BME280;21895;47.072;15.132;2023-02-20T07:31:00;97591.00;;;7.11;64.77
20930;BME280;21895;47.072;15.132;2023-02-20T07:33:27;97583.00;;;7.05;64.74
20930;BME280;21895;47.072;15.132;2023-02-20T07:35:54;97587.00;;;7.39;64.25
20930;BME280;21895;47.072;15.132;2023-02-20T07:38:23;97597.00;;;7.48;63.80
20930;BME280;21895;47.072;15.132;2023-02-20T07:40:49;97598.00;;;7.26;64.52
20930;BME280;21895;47.072;15.132;2023-02-20T07:43:16;97585.00;;;7.21;65.01
20930;BME280;21895;47.072;15.132;2023-02-20T07:45:43;97580.00;;;7.34;64.84
20930;BME280;21895;47.072;15.132;2023-02-20T07:48:09;97586.00;;;7.69;65.44
20930;BME280;21895;47.072;15.132;2023-02-20T07:50:36;97577.00;;;7.90;64.72
20930;BME280;21895;47.072;15.132;2023-02-20T07:53:02;97577.00;;;7.97;64.51
20930;BME280;21895;47.072;15.132;2023-02-20T07:55:29;97583.00;;;8.02;64.69
20930;BME280;21895;47.072;15.132;2023-02-20T07:57:55;97583.00;;;8.12;65.01
20930;BME280;21895;47.072;15.132;2023-02-20T08:00:26;97577.00;;;8.37;65.13
20930;BME280;21895;47.072;15.132;2023-02-20T08:02:52;97573.00;;;8.45;65.61
20930;BME280;21895;47.072;15.132;2023-02-20T08:05:19;97569.00;;;8.66;65.45
20930;BME280;21895;47.072;15.132;2023-02-20T08:07:48;97568.00;;;8.75;65.82
20930;BME280;21895;47.072;15.132;2023-02-20T08:10:18;97556.00;;;8.91;65.25
20930;BME280;21895;47.072;15.132;2023-02-20T08:12:47;97558.00;;;9.06;64.90
20930;BME280;21895;47.072;15.132;2023-02-20T08:15:17;97557.00;;;9.33;63.63
20930;BME280;21895;47.072;15.132;2023-02-20T08:17:43;97562.00;;;9.38;63.16
20930;BME280;21895;47.072;15.132;2023-02-20T08:20:18;97563.00;;;9.38;63.11
20930;BME280;21895;47.072;15.132;2023-02-20T08:22:49;97547.00;;;9.61;62.35
20930;BME280;21895;47.072;15.132;2023-02-20T08:25:17;97554.00;;;9.66;62.13
20930;BME280;21895;47.072;15.132;2023-02-20T08:27:47;97552.00;;;9.83;62.23
20930;BME280;21895;47.072;15.132;2023-02-20T08:30:20;97551.00;;;9.81;62.28
20930;BME280;21895;47.072;15.132;2023-02-20T08:32:50;97543.00;;;9.96;61.85
20930;BME280;21895;47.072;15.132;2023-02-20T08:35:17;97521.00;;;10.30;60.86
20930;BME280;21895;47.072;15.132;2023-02-20T08:37:44;97528.00;;;10.29;60.77
20930;BME280;21895;47.072;15.132;2023-02-20T08:40:12;97518.00;;;10.35;60.72
20930;BME280;21895;47.072;15.132;2023-02-20T08:42:39;97495.00;;;10.37;60.82
20930;BME280;21895;47.072;15.132;2023-02-20T08:45:07;97496.00;;;10.59;60.47
20930;BME280;21895;47.072;15.132;2023-02-20T08:47:34;97484.00;;;10.74;59.35
20930;BME280;21895;47.072;15.132;2023-02-20T08:50:01;97497.00;;;10.83;59.28
20930;BME280;21895;47.072;15.132;2023-02-20T08:52:27;97491.00;;;10.81;59.53
20930;BME280;21895;47.072;15.132;2023-02-20T08:54:54;97483.00;;;10.94;58.96
20930;BME280;21895;47.072;15.132;2023-02-20T08:57:20;97477.00;;;11.14;58.51
20930;BME280;21895;47.072;15.132;2023-02-20T08:59:47;97480.00;;;11.34;57.98
20930;BME280;21895;47.072;15.132;2023-02-20T09:02:23;97461.00;;;11.50;57.23
20930;BME280;21895;47.072;15.132;2023-02-20T09:04:51;97457.00;;;11.41;56.69
20930;BME280;21895;47.072;15.132;2023-02-20T09:07:17;97450.00;;;11.59;56.63
20930;BME280;21895;47.072;15.132;2023-02-20T09:09:44;97444.00;;;11.83;56.15
20930;BME280;21895;47.072;15.132;2023-02-20T09:12:10;97438.00;;;11.99;54.71
20930;BME280;21895;47.072;15.132;2023-02-20T09:14:37;97427.00;;;12.19;53.90
20930;BME280;21895;47.072;15.132;2023-02-20T09:17:05;97431.00;;;12.24;53.33
20930;BME280;21895;47.072;15.132;2023-02-20T09:19:32;97431.00;;;12.45;52.36
20930;BME280;21895;47.072;15.132;2023-02-20T09:21:59;97421.00;;;12.52;51.99
20930;BME280;21895;47.072;15.132;2023-02-20T09:24:26;97416.00;;;12.81;51.64
20930;BME280;21895;47.072;15.132;2023-02-20T09:26:57;97416.00;;;13.01;51.05
20930;BME280;21895;47.072;15.132;2023-02-20T09:29:23;97411.00;;;13.27;48.70
20930;BME280;21895;47.072;15.132;2023-02-20T09:31:50;97417.00;;;13.29;50.09
20930;BME280;21895;47.072;15.132;2023-02-20T09:34:18;97416.00;;;13.40;49.30
20930;BME280;21895;47.072;15.132;2023-02-20T09:36:44;97407.00;;;13.56;48.38
20930;BME280;21895;47.072;15.132;2023-02-20T09:39:11;97410.00;;;13.89;46.94
20930;BME280;21895;47.072;15.132;2023-02-20T09:49:48;97381.00;;;14.35;45.46
20930;BME280;21895;47.072;15.132;2023-02-20T09:52:17;97367.00;;;14.66;43.47
20930;BME280;21895;47.072;15.132;2023-02-20T09:54:53;97365.00;;;14.67;44.11
20930;BME280;21895;47.072;15.132;2023-02-20T09:57:26;97354.00;;;14.77;44.04
20930;BME280;21895;47.072;15.132;2023-02-20T10:00:26;97359.00;;;14.61;45.17
20930;BME280;21895;47.072;15.132;2023-02-20T10:03:10;97358.00;;;14.71;44.67
20930;BME280;21895;47.072;15.132;2023-02-20T10:05:42;97361.00;;;14.97;42.53
20930;BME280;21895;47.072;15.132;2023-02-20T10:08:13;97359.00;;;15.22;40.04
20930;BME280;21895;47.072;15.132;2023-02-20T10:10:42;97366.00;;;15.38;37.79
20930;BME280;21895;47.072;15.132;2023-02-20T10:14:20;97360.00;;;15.53;36.62
20930;BME280;21895;47.072;15.132;2023-02-20T10:19:55;97366.00;;;15.84;35.68
20930;BME280;21895;47.072;15.132;2023-02-20T10:22:38;97356.00;;;16.16;33.56
20930;BME280;21895;47.072;15.132;2023-02-20T10:25:59;97344.00;;;16.07;33.61
20930;BME280;21895;47.072;15.132;2023-02-20T10:28:28;97350.00;;;16.21;34.39
20930;BME280;21895;47.072;15.132;2023-02-20T10:31:12;97352.00;;;16.52;35.98
20930;BME280;21895;47.072;15.132;2023-02-20T10:34:03;97345.00;;;16.97;33.79
20930;BME280;21895;47.072;15.132;2023-02-20T10:36:41;97352.00;;;17.23;31.79
20930;BME280;21895;47.072;15.132;2023-02-20T10:39:13;97348.00;;;16.97;30.54
20930;BME280;21895;47.072;15.132;2023-02-20T10:42:35;97344.00;;;16.90;30.57
20930;BME280;21895;47.072;15.132;2023-02-20T10:46:06;97349.00;;;17.25;30.97
20930;BME280;21895;47.072;15.132;2023-02-20T10:48:38;97346.00;;;17.57;36.62
20930;BME280;21895;47.072;15.132;2023-02-20T10:51:21;97348.00;;;17.62;36.17
20930;BME280;21895;47.072;15.132;2023-02-20T10:55:10;97339.00;;;17.73;35.63
20930;BME280;21895;47.072;15.132;2023-02-20T11:02:31;97330.00;;;16.99;37.46
20930;BME280;21895;47.072;15.132;2023-02-20T11:05:06;97321.00;;;16.77;41.14
20930;BME280;21895;47.072;15.132;2023-02-20T11:07:33;97329.00;;;16.39;42.19
20930;BME280;21895;47.072;15.132;2023-02-20T11:10:00;97329.00;;;16.35;43.07
20930;BME280;21895;47.072;15.132;2023-02-20T11:12:57;97318.00;;;16.01;43.07
20930;BME280;21895;47.072;15.132;2023-02-20T11:15:31;97312.00;;;16.05;43.78
20930;BME280;21895;47.072;15.132;2023-02-20T11:17:58;97315.00;;;15.69;44.43
20930;BME280;21895;47.072;15.132;2023-02-20T11:20:58;97312.00;;;15.64;45.52
20930;BME280;21895;47.072;15.132;2023-02-20T11:23:41;97308.00;;;15.49;45.79
20930;BME280;21895;47.072;15.132;2023-02-20T11:26:30;97305.00;;;15.59;45.12
20930;BME280;21895;47.072;15.132;2023-02-20T11:31:34;97294.00;;;15.74;44.38
20930;BME280;21895;47.072;15.132;2023-02-20T11:34:04;97286.00;;;15.78;43.62
20930;BME280;21895;47.072;15.132;2023-02-20T11:36:45;97283.00;;;15.89;43.21
20930;BME280;21895;47.072;15.132;2023-02-20T11:39:26;97276.00;;;15.85;43.52
20930;BME280;21895;47.072;15.132;2023-02-20T11:43:45;97268.00;;;15.86;42.43
20930;BME280;21895;47.072;15.132;2023-02-20T11:46:27;97261.00;;;15.92;43.31
20930;BME280;21895;47.072;15.132;2023-02-20T11:49:22;97252.00;;;16.07;42.16
20930;BME280;21895;47.072;15.132;2023-02-20T11:51:49;97249.00;;;16.13;40.33
20930;BME280;21895;47.072;15.132;2023-02-20T11:54:23;97241.00;;;16.17;40.30
20930;BME280;21895;47.072;15.132;2023-02-20T11:57:51;97236.00;;;16.03;41.31
20930;BME280;21895;47.072;15.132;2023-02-20T12:00:28;97223.00;;;16.32;40.86
20930;BME280;21895;47.072;15.132;2023-02-20T12:03:28;97230.00;;;16.53;40.35
20930;BME280;21895;47.072;15.132;2023-02-20T12:05:57;97213.00;;;16.46;39.65
20930;BME280;21895;47.072;15.132;2023-02-20T12:08:52;97207.00;;;16.52;39.86
20930;BME280;21895;47.072;15.132;2023-02-20T12:11:21;97205.00;;;16.26;40.63
20930;BME280;21895;47.072;15.132;2023-02-20T12:13:56;97214.00;;;16.20;39.32
20930;BME280;21895;47.072;15.132;2023-02-20T12:19:19;97192.00;;;15.94;39.81
20930;BME280;21895;47.072;15.132;2023-02-20T12:24:38;97193.00;;;15.70;41.42
20930;BME280;21895;47.072;15.132;2023-02-20T12:35:33;97175.00;;;15.48;40.53
20930;BME280;21895;47.072;15.132;2023-02-20T12:41:27;97165.00;;;15.13;41.10
20930;BME280;21895;47.072;15.132;2023-02-20T12:44:56;97159.00;;;15.35;40.55
20930;BME280;21895;47.072;15.132;2023-02-20T12:47:35;97149.00;;;15.67;40.50
20930;BME280;21895;47.072;15.132;2023-02-20T13:02:45;97134.00;;;16.05;39.57
20930;BME280;21895;47.072;15.132;2023-02-20T13:05:19;97126.00;;;16.02;39.29
20930;BME280;21895;47.072;15.132;2023-02-20T13:07:54;97123.00;;;16.08;38.62
20930;BME280;21895;47.072;15.132;2023-02-20T13:10:29;97122.00;;;16.30;37.34
20930;BME280;21895;47.072;15.132;2023-02-20T13:12:58;97124.00;;;16.14;37.98
20930;BME280;21895;47.072;15.132;2023-02-20T13:15:51;97133.00;;;15.91;38.11
20930;BME280;21895;47.072;15.132;2023-02-20T13:18:46;97131.00;;;16.03;37.67
20930;BME280;21895;47.072;15.132;2023-02-20T13:21:18;97126.00;;;15.94;38.04
20930;BME280;21895;47.072;15.132;2023-02-20T13:23:47;97117.00;;;15.90;38.54
20930;BME280;21895;47.072;15.132;2023-02-20T13:28:39;97119.00;;;16.08;38.55
20930;BME280;21895;47.072;15.132;2023-02-20T13:31:56;97120.00;;;16.47;37.25
20930;BME280;21895;47.072;15.132;2023-02-20T13:34:33;97112.00;;;16.29;37.57
20930;BME280;21895;47.072;15.132;2023-02-20T13:37:00;97110.00;;;16.36;36.83
20930;BME280;21895;47.072;15.132;2023-02-20T13:39:37;97111.00;;;16.55;36.32
20930;BME280;21895;47.072;15.132;2023-02-20T13:42:33;97109.00;;;16.18;38.07
20930;BME280;21895;47.072;15.132;2023-02-20T13:45:00;97107.00;;;16.19;38.89
20930;BME280;21895;47.072;15.132;2023-02-20T13:47:32;97106.00;;;16.53;36.94
20930;BME280;21895;47.072;15.132;2023-02-20T13:50:00;97101.00;;;16.44;37.90
20930;BME280;21895;47.072;15.132;2023-02-20T13:52:41;97090.00;;;16.50;37.79
20930;BME280;21895;47.072;15.132;2023-02-20T13:55:25;97087.00;;;16.60;38.04
20930;BME280;21895;47.072;15.132;2023-02-20T13:58:09;97091.00;;;16.63;37.77
20930;BME280;21895;47.072;15.132;2023-02-20T14:00:50;97089.00;;;16.85;38.04
20930;BME280;21895;47.072;15.132;2023-02-20T14:03:29;97081.00;;;17.11;36.13
20930;BME280;21895;47.072;15.132;2023-02-20T14:06:17;97077.00;;;16.77;36.74
20930;BME280;21895;47.072;15.132;2023-02-20T14:08:47;97075.00;;;16.95;36.65
20930;BME280;21895;47.072;15.132;2023-02-20T14:11:35;97072.00;;;17.15;36.11
20930;BME280;21895;47.072;15.132;2023-02-20T14:14:25;97069.00;;;16.93;37.28
20930;BME280;21895;47.072;15.132;2023-02-20T14:17:22;97073.00;;;17.33;36.78
20930;BME280;21895;47.072;15.132;2023-02-20T14:19:58;97071.00;;;17.27;36.34
20930;BME280;21895;47.072;15.132;2023-02-20T14:22:40;97074.00;;;17.32;36.26
20930;BME280;21895;47.072;15.132;2023-02-20T14:25:25;97070.00;;;17.11;36.85
20930;BME280;21895;47.072;15.132;2023-02-20T14:28:11;97062.00;;;16.87;36.94
20930;BME280;21895;47.072;15.132;2023-02-20T14:30:41;97061.00;;;16.88;37.21
20930;BME280;21895;47.072;15.132;2023-02-20T14:33:31;97049.00;;;16.74;37.61
20930;BME280;21895;47.072;15.132;2023-02-20T14:36:31;97051.00;;;16.60;37.91
20930;BME280;21895;47.072;15.132;2023-02-20T14:40:10;97038.00;;;16.58;38.63
20930;BME280;21895;47.072;15.132;2023-02-20T14:42:45;97040.00;;;16.58;38.46
20930;BME280;21895;47.072;15.132;2023-02-20T14:45:18;97038.00;;;16.58;38.23
20930;BME280;21895;47.072;15.132;2023-02-20T14:47:59;97040.00;;;16.46;38.57
20930;BME280;21895;47.072;15.132;2023-02-20T14:50:33;97028.00;;;16.37;39.07
20930;BME280;21895;47.072;15.132;2023-02-20T14:53:18;97032.00;;;16.51;39.18